ADDS METAR Data INFO
IDs: Format: Raw Decoded Include TAF

Data at: 0841 UTC 27 Jun 2017

KMAF 270753Z AUTO 12004KT 10SM CLR 21/18 A3011 RMK AO2 SLP154 T02060183
KMAF 270653Z AUTO 11006KT 10SM CLR 21/18 A3011 RMK AO2 SLP154 T02110183
KMAF 270553Z AUTO 10008KT 10SM CLR 22/18 A3013 RMK AO2 SLP156 T02220183 10267 20222 402720172 50015
KMAF 270453Z AUTO 12008KT 10SM CLR 23/18 A3013 RMK AO2 SLP159 T02280183
KMAF 270353Z AUTO 10007KT 10SM CLR 24/19 A3012 RMK AO2 SLP154 T02390189
KMAF 270253Z 12006KT 10SM CLR 24/19 A3008 RMK AO2 SLP142 T02440194 53001
KMAF 270153Z 10007KT 10SM SCT060 BKN085 26/17 A3007 RMK AO2 SLP140 T02610172
KMAF 270053Z 08009KT 10SM BKN065 OVC085 26/19 A3008 RMK AO2 SLP143 T02610189
KMAF 262353Z 09011KT 10SM BKN070 BKN090 27/19 A3007 RMK AO2 SLP143 60026 T02670189 10272 20217 58014
KMAF 262253Z 09009KT 10SM FEW060 SCT100 27/19 A3009 RMK AO2 SLP148 T02720189
KMAF 262153Z 10009KT 10SM FEW014 SCT035 BKN070 24/21 A3011 RMK AO2 PK WND 03028/2128 WSHFT 2114 RAB2054E49 SLP157 P0026 T02440206
KMAF 262142Z 08011G20KT 6SM -RA BR SCT014 BKN037 OVC070 23/21 A3011 RMK AO2 PK WND 03028/2128 WSHFT 2114 RAB2054 P0026 T02280206
KMAF 262137Z 06015KT 1/2SM +RA FG SCT016 BKN039 OVC050 22/21 A3012 RMK AO2 PK WND 03028/2128 WSHFT 2114 RAB2054 P0024 T02220206
KMAF 262129Z 03025KT 1 3/4SM +RA FEW019 BKN039 OVC075 23/20 A3012 RMK AO2 PK WND 03028/2128 WSHFT 2114 RAB2054 P0002 T02280200
KMAF 262053Z 10010KT 10SM FEW040 BKN080 OVC100 26/18 A3012 RMK AO2 SLP155 T02610183 58024
KMAF 261953Z 13010KT 10SM FEW025 OVC110 27/19 A3015 RMK AO2 SLP162 T02670189
KMAF 261853Z 12007KT 10SM FEW042 SCT049 BKN065 26/19 A3018 RMK AO2 SLP171 T02610194
KMAF 261753Z 03004KT 10SM BKN031 27/18 A3020 RMK AO2 SLP177 60009 T02720178 10272 20183 50000
KMAF 261653Z 26003KT 10SM FEW120 26/18 A3020 RMK AO2 SLP179 T02610178
KMAF 261553Z VRB05KT 10SM SCT120 25/17 A3020 RMK AO2 SLP179 T02500167
KMAF 261453Z 00000KT 10SM CLR 23/17 A3020 RMK AO2 SLP179 60009 T02280167 55015
KMAF 261353Z 07006KT 10SM CLR 19/17 A3019 RMK AO2 RAE13 SLP181 P0000 T01940172
KMAF 261321Z 08007KT 10SM FEW007 BKN110 19/17 A3019 RMK AO2 RAE13 P0000 T01890172
KMAF 261253Z 14015KT 10SM -RA OVC110 19/17 A3020 RMK AO2 SLP180 P0009 T01890172
KMAF 261153Z 09009KT 5SM RA BR FEW070 BKN090 OVC100 18/17 A3024 RMK AO2 SLP196 P0027 60112 70112 T01830167 10261 20172 53004
KMAF 261053Z 03016KT 6SM RA BR FEW070 BKN090 OVC110 18/16 A3023 RMK AO2 PK WND 03032/0956 LTG DSNT NE-S TSE00 SLP192 P0019 T01780161
KMAF 261049Z 03018KT 6SM RA BR FEW009 BKN095 OVC110 18/16 A3023 RMK AO2 PK WND 03032/0956 LTG DSNT NE-S TSE00 P0018
KMAF 261032Z AUTO 02014KT 6SM VCTS RA BR FEW009 BKN090 OVC110 18/16 A3023 RMK AO2 PK WND 03032/0956 LTG DSNT E-SW TSE00 P0013 T01780161
KMAF 261013Z AUTO 02020G28KT 4SM RA BR SCT048 BKN070 OVC080 18/16 A3023 RMK AO2 PK WND 03032/0956 LTG DSNT ALQDS TSE00 P0010 T01780161
KMAF 261000Z AUTO 02023G32KT 2SM VCTS +RA BR BKN041 OVC065 17/16 A3022 RMK AO2 PK WND 03032/0956 LTG DSNT ALQDS TSE00 P0004 T01720161
KMAF 260953Z AUTO 03024G30KT 3SM TSRA BR BKN036 OVC065 17/16 A3023 RMK AO2 PK WND 02035/0929 WSHFT 0849 LTG DSNT ALQDS RAB0858 TSB28 SLP193 P0066 T01720161
KMAF 260949Z AUTO 03024G30KT 3SM TSRA BR OVC031 17/16 A3024 RMK AO2 PK WND 02035/0929 WSHFT 0849 LTG DSNT ALQDS RAB0858 TSB28 P0065
KMAF 260939Z AUTO 02021G33KT 2SM +TSRA BR FEW008 OVC019 17/16 A3024 RMK AO2 PK WND 02035/0929 WSHFT 0849 LTG DSNT NE AND SW RAB0858 TSB28 P0060 T01720161
KMAF 260933Z AUTO 02022G35KT 1SM +TSRA BR FEW008 OVC012 17/16 A3024 RMK AO2 PK WND 02035/0929 WSHFT 0849 LTG DSNT W-NE RAB0858 TSB28 P0056 T01720161
KMAF 260928Z AUTO 02022G30KT 3/4SM +TSRA BR VV010 17/16 A3024 RMK AO2 PK WND 01032/0917 WSHFT 0849 LTG DSNT W-NE RAB0858 TSB28 P0048 T01720161
KMAF 260916Z AUTO 01023G30KT 1 3/4SM VCTS +RA BR FEW006 BKN010 OVC026 18/17 A3024 RMK AO2 PK WND 01030/0916 WSHFT 0849 LTG DSNT W-NE RAB0858 P0009 T01780167
KMAF 260909Z AUTO 36017G24KT 2 1/2SM VCTS +RA BR SCT010 BKN018 OVC031 18/17 A3024 RMK AO2 PK WND 01027/0857 WSHFT 0849 LTG DSNT NW-NE RAB0858 P0005 T01830167
KMAF 260903Z AUTO 01018G27KT 5SM -RA BR BKN016 BKN025 OVC039 19/17 A3024 RMK AO2 PK WND 01027/0857 WSHFT 0849 LTG DSNT NW-NE RAB0858 P0001 T01890167
KMAF 260853Z AUTO 36021G26KT 10SM FEW024 BKN032 BKN039 22/16 A3024 RMK AO2 PK WND 01026/0851 LTG DSNT NW-NE PRESRR SLP189 T02220161 53013
KMAF 260753Z AUTO 13012KT 10SM CLR 24/18 A3017 RMK AO2 LTG DSNT W-N SLP165 T02440178
KMAF 260653Z AUTO 12016KT 10SM OVC110 26/17 A3019 RMK AO2 LTG DSNT NW SLP171 T02560167
KMAF 260553Z AUTO 12013KT 10SM CLR 26/16 A3019 RMK AO2 SLP174 T02610161 10322 20261 403330217 53014
KMAF 260453Z 12014KT 10SM CLR 27/16 A3016 RMK AO2 SLP165 T02670156
KMAF 260353Z 12015KT 10SM CLR 28/15 A3017 RMK AO2 SLP166 T02780150
KMAF 260253Z 12018G22KT 10SM CLR 28/16 A3015 RMK AO2 SLP160 T02830156 53010
KMAF 260153Z 12016KT 10SM CLR 29/15 A3011 RMK AO2 SLP149 T02940150
KMAF 260053Z 12012KT 10SM CLR 31/15 A3011 RMK AO2 SLP147 T03110150
KMAF 252353Z 13018G21KT 10SM FEW060 32/14 A3012 RMK AO2 SLP149 T03220144 10333 20294 56018
KMAF 252253Z 13014G22KT 10SM BKN070 33/14 A3012 RMK AO2 SLP151 T03280144
KMAF 252153Z 11009G16KT 10SM SCT060 32/14 A3015 RMK AO2 SLP161 T03220144
KMAF 252053Z 15009G17KT 10SM SCT060 33/14 A3017 RMK AO2 SLP167 T03280144 58023


Page loaded:  08:41 UTC  |   01:41 AM Pacific  |   02:41 AM Mountain  |   03:41 AM Central  |   04:41 AM Eastern

 

ADVISORIES

FORECASTS

FORECASTS

OBSERVATIONS

USER TOOLS

ABOUT US